sensor_id;sensor_type;location;lat;lon;timestamp;temperature;humidity
22917;DHT22;11624;53.250;7.456;2023-05-16T00:02:17;16.19;52.33
22917;DHT22;11624;53.250;7.456;2023-05-16T00:04:45;16.16;52.43
22917;DHT22;11624;53.250;7.456;2023-05-16T00:07:14;16.12;52.42
22917;DHT22;11624;53.250;7.456;2023-05-16T00:09:42;16.11;52.73
22917;DHT22;11624;53.250;7.456;2023-05-16T00:12:11;16.05;52.81
22917;DHT22;11624;53.250;7.456;2023-05-16T00:14:40;16.07;52.69
22917;DHT22;11624;53.250;7.456;2023-05-16T00:17:08;16.07;52.65
22917;DHT22;11624;53.250;7.456;2023-05-16T00:19:38;15.99;52.78
22917;DHT22;11624;53.250;7.456;2023-05-16T00:22:08;15.96;52.83
22917;DHT22;11624;53.250;7.456;2023-05-16T00:24:37;15.89;52.88
22917;DHT22;11624;53.250;7.456;2023-05-16T00:27:05;15.82;52.90
22917;DHT22;11624;53.250;7.456;2023-05-16T00:29:34;15.75;52.95
22917;DHT22;11624;53.250;7.456;2023-05-16T00:32:04;15.71;52.88
22917;DHT22;11624;53.250;7.456;2023-05-16T00:34:34;15.70;52.82
22917;DHT22;11624;53.250;7.456;2023-05-16T00:37:03;15.69;52.78
22917;DHT22;11624;53.250;7.456;2023-05-16T00:39:32;15.66;52.91
22917;DHT22;11624;53.250;7.456;2023-05-16T00:42:00;15.61;52.97
22917;DHT22;11624;53.250;7.456;2023-05-16T00:44:30;15.52;53.09
22917;DHT22;11624;53.250;7.456;2023-05-16T00:46:58;15.49;53.00
22917;DHT22;11624;53.250;7.456;2023-05-16T00:49:30;15.48;52.83
22917;DHT22;11624;53.250;7.456;2023-05-16T00:51:58;15.47;52.72
22917;DHT22;11624;53.250;7.456;2023-05-16T00:54:27;15.42;52.63
22917;DHT22;11624;53.250;7.456;2023-05-16T00:56:57;15.33;52.65
22917;DHT22;11624;53.250;7.456;2023-05-16T00:59:26;15.31;52.66
22917;DHT22;11624;53.250;7.456;2023-05-16T01:01:54;15.26;52.60
22917;DHT22;11624;53.250;7.456;2023-05-16T01:04:23;15.25;52.58
22917;DHT22;11624;53.250;7.456;2023-05-16T01:06:55;15.18;52.54
22917;DHT22;11624;53.250;7.456;2023-05-16T01:09:23;15.12;52.65
22917;DHT22;11624;53.250;7.456;2023-05-16T01:11:57;14.98;52.63
22917;DHT22;11624;53.250;7.456;2023-05-16T01:14:37;14.96;52.45
22917;DHT22;11624;53.250;7.456;2023-05-16T01:17:16;14.92;52.38
22917;DHT22;11624;53.250;7.456;2023-05-16T01:20:01;14.82;52.17
22917;DHT22;11624;53.250;7.456;2023-05-16T01:22:45;14.77;52.14
22917;DHT22;11624;53.250;7.456;2023-05-16T01:25:21;14.78;51.90
22917;DHT22;11624;53.250;7.456;2023-05-16T01:27:56;14.73;52.16
22917;DHT22;11624;53.250;7.456;2023-05-16T01:30:25;14.67;52.28
22917;DHT22;11624;53.250;7.456;2023-05-16T01:32:53;14.60;52.36
22917;DHT22;11624;53.250;7.456;2023-05-16T01:35:23;14.57;52.29
22917;DHT22;11624;53.250;7.456;2023-05-16T01:37:58;14.50;52.09
22917;DHT22;11624;53.250;7.456;2023-05-16T01:40:37;14.49;52.04
22917;DHT22;11624;53.250;7.456;2023-05-16T01:43:12;14.43;52.17
22917;DHT22;11624;53.250;7.456;2023-05-16T01:45:47;14.38;52.11
22917;DHT22;11624;53.250;7.456;2023-05-16T01:48:21;14.38;52.08
22917;DHT22;11624;53.250;7.456;2023-05-16T01:50:53;14.33;52.11
22917;DHT22;11624;53.250;7.456;2023-05-16T01:53:26;14.29;51.92
22917;DHT22;11624;53.250;7.456;2023-05-16T01:55:56;14.26;52.35
22917;DHT22;11624;53.250;7.456;2023-05-16T01:58:29;14.28;52.24
22917;DHT22;11624;53.250;7.456;2023-05-16T02:01:00;14.25;52.57
22917;DHT22;11624;53.250;7.456;2023-05-16T02:03:29;14.25;52.58
22917;DHT22;11624;53.250;7.456;2023-05-16T02:05:57;14.27;52.60
22917;DHT22;11624;53.250;7.456;2023-05-16T02:08:26;14.25;52.70
22917;DHT22;11624;53.250;7.456;2023-05-16T02:10:55;14.25;52.70
22917;DHT22;11624;53.250;7.456;2023-05-16T02:13:23;14.24;52.82
22917;DHT22;11624;53.250;7.456;2023-05-16T02:15:53;14.17;53.07
22917;DHT22;11624;53.250;7.456;2023-05-16T02:18:21;14.15;53.20
22917;DHT22;11624;53.250;7.456;2023-05-16T02:20:50;14.18;53.17
22917;DHT22;11624;53.250;7.456;2023-05-16T02:23:19;14.22;53.06
22917;DHT22;11624;53.250;7.456;2023-05-16T02:25:47;14.18;53.14
22917;DHT22;11624;53.250;7.456;2023-05-16T02:28:16;14.18;53.15
22917;DHT22;11624;53.250;7.456;2023-05-16T02:30:44;14.19;53.06
22917;DHT22;11624;53.250;7.456;2023-05-16T02:33:14;14.19;52.97
22917;DHT22;11624;53.250;7.456;2023-05-16T02:35:42;14.19;52.89
22917;DHT22;11624;53.250;7.456;2023-05-16T02:38:10;14.19;52.87
22917;DHT22;11624;53.250;7.456;2023-05-16T02:40:43;14.15;52.91
22917;DHT22;11624;53.250;7.456;2023-05-16T02:43:11;14.15;52.82
22917;DHT22;11624;53.250;7.456;2023-05-16T02:45:41;14.17;52.74
22917;DHT22;11624;53.250;7.456;2023-05-16T02:48:09;14.17;52.75
22917;DHT22;11624;53.250;7.456;2023-05-16T02:50:41;14.17;52.91
22917;DHT22;11624;53.250;7.456;2023-05-16T02:53:09;14.22;52.85
22917;DHT22;11624;53.250;7.456;2023-05-16T02:55:38;14.20;52.89
22917;DHT22;11624;53.250;7.456;2023-05-16T02:58:06;14.15;52.89
22917;DHT22;11624;53.250;7.456;2023-05-16T03:00:35;14.11;53.04
22917;DHT22;11624;53.250;7.456;2023-05-16T03:03:03;14.07;53.15
22917;DHT22;11624;53.250;7.456;2023-05-16T03:05:32;14.05;53.27
22917;DHT22;11624;53.250;7.456;2023-05-16T03:08:01;14.03;53.44
22917;DHT22;11624;53.250;7.456;2023-05-16T03:10:32;14.04;53.43
22917;DHT22;11624;53.250;7.456;2023-05-16T03:13:01;14.03;53.53
22917;DHT22;11624;53.250;7.456;2023-05-16T03:15:29;14.04;53.60
22917;DHT22;11624;53.250;7.456;2023-05-16T03:17:57;14.04;53.56
22917;DHT22;11624;53.250;7.456;2023-05-16T03:20:26;14.00;53.63
22917;DHT22;11624;53.250;7.456;2023-05-16T03:22:55;13.97;53.69
22917;DHT22;11624;53.250;7.456;2023-05-16T03:25:25;13.95;53.70
22917;DHT22;11624;53.250;7.456;2023-05-16T03:27:54;13.96;53.70
22917;DHT22;11624;53.250;7.456;2023-05-16T03:30:23;13.93;53.69
22917;DHT22;11624;53.250;7.456;2023-05-16T03:32:52;13.92;53.65
22917;DHT22;11624;53.250;7.456;2023-05-16T03:35:20;13.92;53.65
22917;DHT22;11624;53.250;7.456;2023-05-16T03:37:50;13.94;53.56
22917;DHT22;11624;53.250;7.456;2023-05-16T03:40:19;13.93;53.55
22917;DHT22;11624;53.250;7.456;2023-05-16T03:42:49;13.89;53.66
22917;DHT22;11624;53.250;7.456;2023-05-16T03:45:17;13.86;53.76
22917;DHT22;11624;53.250;7.456;2023-05-16T03:47:47;13.90;53.75
22917;DHT22;11624;53.250;7.456;2023-05-16T03:50:15;13.89;53.81
22917;DHT22;11624;53.250;7.456;2023-05-16T03:52:44;13.91;53.84
22917;DHT22;11624;53.250;7.456;2023-05-16T03:55:12;13.91;53.87
22917;DHT22;11624;53.250;7.456;2023-05-16T03:57:41;13.91;53.84
22917;DHT22;11624;53.250;7.456;2023-05-16T04:00:12;13.93;53.56
22917;DHT22;11624;53.250;7.456;2023-05-16T04:02:40;13.92;53.65
22917;DHT22;11624;53.250;7.456;2023-05-16T04:05:10;13.93;53.55
22917;DHT22;11624;53.250;7.456;2023-05-16T04:07:40;13.92;53.68
22917;DHT22;11624;53.250;7.456;2023-05-16T04:10:10;13.94;53.60
22917;DHT22;11624;53.250;7.456;2023-05-16T04:12:38;13.95;53.56
22917;DHT22;11624;53.250;7.456;2023-05-16T04:15:07;13.95;53.59
22917;DHT22;11624;53.250;7.456;2023-05-16T04:17:37;13.95;53.50
22917;DHT22;11624;53.250;7.456;2023-05-16T04:20:06;13.94;53.58
22917;DHT22;11624;53.250;7.456;2023-05-16T04:22:34;13.91;53.75
22917;DHT22;11624;53.250;7.456;2023-05-16T04:25:03;13.93;53.71
22917;DHT22;11624;53.250;7.456;2023-05-16T04:27:32;13.95;53.74
22917;DHT22;11624;53.250;7.456;2023-05-16T04:30:00;14.00;53.73
22917;DHT22;11624;53.250;7.456;2023-05-16T04:32:28;14.03;53.72
22917;DHT22;11624;53.250;7.456;2023-05-16T04:35:02;14.06;53.76
22917;DHT22;11624;53.250;7.456;2023-05-16T04:37:30;14.12;53.85
22917;DHT22;11624;53.250;7.456;2023-05-16T04:39:58;14.18;53.82
22917;DHT22;11624;53.250;7.456;2023-05-16T04:42:27;14.24;53.83
22917;DHT22;11624;53.250;7.456;2023-05-16T04:44:55;14.33;53.69
22917;DHT22;11624;53.250;7.456;2023-05-16T04:47:24;14.39;53.54
22917;DHT22;11624;53.250;7.456;2023-05-16T04:49:52;14.41;53.39
22917;DHT22;11624;53.250;7.456;2023-05-16T04:52:22;14.43;53.33
22917;DHT22;11624;53.250;7.456;2023-05-16T04:54:50;14.45;53.43
22917;DHT22;11624;53.250;7.456;2023-05-16T04:57:19;14.50;53.41
22917;DHT22;11624;53.250;7.456;2023-05-16T04:59:47;14.51;53.49
22917;DHT22;11624;53.250;7.456;2023-05-16T05:02:15;14.54;53.56
22917;DHT22;11624;53.250;7.456;2023-05-16T05:04:44;14.57;53.57
22917;DHT22;11624;53.250;7.456;2023-05-16T05:07:12;14.60;53.57
22917;DHT22;11624;53.250;7.456;2023-05-16T05:09:42;14.70;53.51
22917;DHT22;11624;53.250;7.456;2023-05-16T05:12:10;14.78;53.55
22917;DHT22;11624;53.250;7.456;2023-05-16T05:14:39;14.84;53.44
22917;DHT22;11624;53.250;7.456;2023-05-16T05:17:07;14.97;53.12
22917;DHT22;11624;53.250;7.456;2023-05-16T05:19:35;15.03;53.17
22917;DHT22;11624;53.250;7.456;2023-05-16T05:22:04;15.16;53.16
22917;DHT22;11624;53.250;7.456;2023-05-16T05:24:32;15.26;53.04
22917;DHT22;11624;53.250;7.456;2023-05-16T05:27:02;15.39;52.57
22917;DHT22;11624;53.250;7.456;2023-05-16T05:29:31;15.49;52.71
22917;DHT22;11624;53.250;7.456;2023-05-16T05:31:59;15.63;52.22
22917;DHT22;11624;53.250;7.456;2023-05-16T05:34:28;15.75;51.53
22917;DHT22;11624;53.250;7.456;2023-05-16T05:36:56;15.78;51.44
22917;DHT22;11624;53.250;7.456;2023-05-16T05:39:25;15.89;51.17
22917;DHT22;11624;53.250;7.456;2023-05-16T05:41:53;15.99;50.34
22917;DHT22;11624;53.250;7.456;2023-05-16T05:44:23;16.18;50.13
22917;DHT22;11624;53.250;7.456;2023-05-16T05:46:51;16.45;49.65
22917;DHT22;11624;53.250;7.456;2023-05-16T05:49:20;16.55;48.95
22917;DHT22;11624;53.250;7.456;2023-05-16T05:51:49;16.65;48.08
22917;DHT22;11624;53.250;7.456;2023-05-16T05:54:18;16.69;48.05
22917;DHT22;11624;53.250;7.456;2023-05-16T05:56:46;16.70;47.74
22917;DHT22;11624;53.250;7.456;2023-05-16T05:59:15;16.78;47.56
22917;DHT22;11624;53.250;7.456;2023-05-16T06:01:45;16.81;47.31
22917;DHT22;11624;53.250;7.456;2023-05-16T06:04:13;16.81;47.76
22917;DHT22;11624;53.250;7.456;2023-05-16T06:06:41;16.88;47.17
22917;DHT22;11624;53.250;7.456;2023-05-16T06:09:09;16.95;46.75
22917;DHT22;11624;53.250;7.456;2023-05-16T06:11:38;17.05;45.58
22917;DHT22;11624;53.250;7.456;2023-05-16T06:14:07;17.04;44.84
22917;DHT22;11624;53.250;7.456;2023-05-16T06:16:35;17.01;45.05
22917;DHT22;11624;53.250;7.456;2023-05-16T06:19:06;17.07;45.53
22917;DHT22;11624;53.250;7.456;2023-05-16T06:21:35;17.15;45.66
22917;DHT22;11624;53.250;7.456;2023-05-16T06:24:04;17.23;45.82
22917;DHT22;11624;53.250;7.456;2023-05-16T06:26:32;17.23;44.51
22917;DHT22;11624;53.250;7.456;2023-05-16T06:29:00;17.44;44.49
22917;DHT22;11624;53.250;7.456;2023-05-16T06:31:29;17.51;44.23
22917;DHT22;11624;53.250;7.456;2023-05-16T06:33:58;17.64;44.03
22917;DHT22;11624;53.250;7.456;2023-05-16T06:36:28;17.69;43.22
22917;DHT22;11624;53.250;7.456;2023-05-16T06:38:56;17.60;42.68
22917;DHT22;11624;53.250;7.456;2023-05-16T06:41:25;17.54;43.35
22917;DHT22;11624;53.250;7.456;2023-05-16T06:43:53;17.47;43.13
22917;DHT22;11624;53.250;7.456;2023-05-16T06:46:22;17.45;42.95
22917;DHT22;11624;53.250;7.456;2023-05-16T06:48:50;17.40;42.41
22917;DHT22;11624;53.250;7.456;2023-05-16T06:51:18;17.36;42.19
22917;DHT22;11624;53.250;7.456;2023-05-16T06:53:48;17.32;42.69
22917;DHT22;11624;53.250;7.456;2023-05-16T06:56:16;17.43;42.45
22917;DHT22;11624;53.250;7.456;2023-05-16T06:58:45;17.49;42.83
22917;DHT22;11624;53.250;7.456;2023-05-16T07:01:15;17.49;43.48
22917;DHT22;11624;53.250;7.456;2023-05-16T07:03:43;17.50;43.48
22917;DHT22;11624;53.250;7.456;2023-05-16T07:06:12;17.45;42.64
22917;DHT22;11624;53.250;7.456;2023-05-16T07:08:40;17.37;42.45
22917;DHT22;11624;53.250;7.456;2023-05-16T07:11:10;17.41;41.79
22917;DHT22;11624;53.250;7.456;2023-05-16T07:13:38;17.52;41.52
22917;DHT22;11624;53.250;7.456;2023-05-16T07:16:07;17.75;41.04
22917;DHT22;11624;53.250;7.456;2023-05-16T07:18:35;18.10;40.61
22917;DHT22;11624;53.250;7.456;2023-05-16T07:21:03;18.53;40.18
22917;DHT22;11624;53.250;7.456;2023-05-16T07:23:32;19.09;38.88
22917;DHT22;11624;53.250;7.456;2023-05-16T07:26:00;19.45;37.75
22917;DHT22;11624;53.250;7.456;2023-05-16T07:28:30;19.54;37.06
22917;DHT22;11624;53.250;7.456;2023-05-16T07:30:59;19.36;37.27
22917;DHT22;11624;53.250;7.456;2023-05-16T07:33:27;18.89;37.01
22917;DHT22;11624;53.250;7.456;2023-05-16T07:35:55;18.55;37.37
22917;DHT22;11624;53.250;7.456;2023-05-16T07:38:41;18.25;38.16
22917;DHT22;11624;53.250;7.456;2023-05-16T07:41:10;18.11;38.64
22917;DHT22;11624;53.250;7.456;2023-05-16T07:43:39;18.33;39.27
22917;DHT22;11624;53.250;7.456;2023-05-16T07:46:08;18.70;37.37
22917;DHT22;11624;53.250;7.456;2023-05-16T07:48:37;19.01;36.82
22917;DHT22;11624;53.250;7.456;2023-05-16T07:51:05;19.41;36.76
22917;DHT22;11624;53.250;7.456;2023-05-16T07:53:34;19.80;36.69
22917;DHT22;11624;53.250;7.456;2023-05-16T07:56:03;20.11;35.90
22917;DHT22;11624;53.250;7.456;2023-05-16T07:58:32;20.27;35.98
22917;DHT22;11624;53.250;7.456;2023-05-16T08:01:02;20.60;35.43
22917;DHT22;11624;53.250;7.456;2023-05-16T08:03:31;20.85;34.99
22917;DHT22;11624;53.250;7.456;2023-05-16T08:06:00;20.98;33.69
22917;DHT22;11624;53.250;7.456;2023-05-16T08:08:28;20.81;34.03
22917;DHT22;11624;53.250;7.456;2023-05-16T08:10:57;20.83;32.51
22917;DHT22;11624;53.250;7.456;2023-05-16T08:13:25;20.81;33.81
22917;DHT22;11624;53.250;7.456;2023-05-16T08:15:53;21.02;31.96
22917;DHT22;11624;53.250;7.456;2023-05-16T08:18:23;21.04;32.69
22917;DHT22;11624;53.250;7.456;2023-05-16T08:20:51;20.81;33.27
22917;DHT22;11624;53.250;7.456;2023-05-16T08:23:20;20.64;33.16
22917;DHT22;11624;53.250;7.456;2023-05-16T08:25:48;20.39;33.07
22917;DHT22;11624;53.250;7.456;2023-05-16T08:28:17;20.58;32.65
22917;DHT22;11624;53.250;7.456;2023-05-16T08:30:45;20.30;32.30
22917;DHT22;11624;53.250;7.456;2023-05-16T08:33:14;20.25;33.59
22917;DHT22;11624;53.250;7.456;2023-05-16T08:35:44;19.89;34.44
22917;DHT22;11624;53.250;7.456;2023-05-16T08:38:12;19.50;33.84
22917;DHT22;11624;53.250;7.456;2023-05-16T08:40:42;19.54;34.30
22917;DHT22;11624;53.250;7.456;2023-05-16T08:43:11;19.85;34.25
22917;DHT22;11624;53.250;7.456;2023-05-16T08:45:40;20.16;33.95
22917;DHT22;11624;53.250;7.456;2023-05-16T08:48:09;20.44;33.92
22917;DHT22;11624;53.250;7.456;2023-05-16T08:50:38;20.69;33.45
22917;DHT22;11624;53.250;7.456;2023-05-16T08:53:11;20.79;32.87
22917;DHT22;11624;53.250;7.456;2023-05-16T08:55:43;21.14;34.01
22917;DHT22;11624;53.250;7.456;2023-05-16T08:58:13;21.39;32.84
22917;DHT22;11624;53.250;7.456;2023-05-16T09:00:41;21.25;32.83
22917;DHT22;11624;53.250;7.456;2023-05-16T09:03:10;20.84;34.30
22917;DHT22;11624;53.250;7.456;2023-05-16T09:05:39;20.16;35.39
22917;DHT22;11624;53.250;7.456;2023-05-16T09:08:09;19.53;35.98
22917;DHT22;11624;53.250;7.456;2023-05-16T09:10:38;19.27;36.13
22917;DHT22;11624;53.250;7.456;2023-05-16T09:13:06;19.60;35.63
22917;DHT22;11624;53.250;7.456;2023-05-16T09:15:34;20.04;34.32
22917;DHT22;11624;53.250;7.456;2023-05-16T09:18:03;20.20;33.73
22917;DHT22;11624;53.250;7.456;2023-05-16T09:20:31;20.35;33.25
22917;DHT22;11624;53.250;7.456;2023-05-16T09:23:00;20.39;34.05
22917;DHT22;11624;53.250;7.456;2023-05-16T09:25:30;20.95;33.55
22917;DHT22;11624;53.250;7.456;2023-05-16T09:27:59;21.44;31.61
22917;DHT22;11624;53.250;7.456;2023-05-16T09:30:30;21.79;32.76
22917;DHT22;11624;53.250;7.456;2023-05-16T09:33:00;22.16;31.48
22917;DHT22;11624;53.250;7.456;2023-05-16T09:35:30;22.24;31.08
22917;DHT22;11624;53.250;7.456;2023-05-16T09:38:01;21.65;31.65
22917;DHT22;11624;53.250;7.456;2023-05-16T09:40:31;20.83;32.69
22917;DHT22;11624;53.250;7.456;2023-05-16T09:43:04;20.31;34.69
22917;DHT22;11624;53.250;7.456;2023-05-16T09:45:35;20.51;36.24
22917;DHT22;11624;53.250;7.456;2023-05-16T09:48:05;20.78;34.33
22917;DHT22;11624;53.250;7.456;2023-05-16T09:50:35;21.13;33.85
22917;DHT22;11624;53.250;7.456;2023-05-16T09:53:04;21.51;32.37
22917;DHT22;11624;53.250;7.456;2023-05-16T09:55:34;21.62;30.48
22917;DHT22;11624;53.250;7.456;2023-05-16T09:58:03;21.69;30.42
22917;DHT22;11624;53.250;7.456;2023-05-16T10:00:33;21.85;30.04
22917;DHT22;11624;53.250;7.456;2023-05-16T10:03:01;22.02;30.34
22917;DHT22;11624;53.250;7.456;2023-05-16T10:05:32;22.34;30.22
22917;DHT22;11624;53.250;7.456;2023-05-16T10:08:02;22.47;29.95
22917;DHT22;11624;53.250;7.456;2023-05-16T10:10:36;22.39;29.39
22917;DHT22;11624;53.250;7.456;2023-05-16T10:13:06;22.33;28.90
22917;DHT22;11624;53.250;7.456;2023-05-16T10:15:36;22.50;30.13
22917;DHT22;11624;53.250;7.456;2023-05-16T10:18:06;22.55;30.13
22917;DHT22;11624;53.250;7.456;2023-05-16T10:20:40;22.39;29.00
22917;DHT22;11624;53.250;7.456;2023-05-16T10:23:14;22.09;29.39
22917;DHT22;11624;53.250;7.456;2023-05-16T10:25:46;22.20;28.88
22917;DHT22;11624;53.250;7.456;2023-05-16T10:28:15;22.37;28.94
22917;DHT22;11624;53.250;7.456;2023-05-16T10:30:44;22.61;28.60
22917;DHT22;11624;53.250;7.456;2023-05-16T10:33:16;22.32;28.81
22917;DHT22;11624;53.250;7.456;2023-05-16T10:35:45;22.21;30.43
22917;DHT22;11624;53.250;7.456;2023-05-16T10:38:16;22.33;30.90
22917;DHT22;11624;53.250;7.456;2023-05-16T10:40:47;22.73;31.14
22917;DHT22;11624;53.250;7.456;2023-05-16T10:43:23;23.20;30.72
22917;DHT22;11624;53.250;7.456;2023-05-16T10:45:57;23.03;29.54
22917;DHT22;11624;53.250;7.456;2023-05-16T10:48:29;22.20;32.04
22917;DHT22;11624;53.250;7.456;2023-05-16T10:50:59;21.30;32.82
22917;DHT22;11624;53.250;7.456;2023-05-16T10:53:30;20.69;35.68
22917;DHT22;11624;53.250;7.456;2023-05-16T10:56:08;20.51;35.81
22917;DHT22;11624;53.250;7.456;2023-05-16T10:58:45;20.42;36.09
22917;DHT22;11624;53.250;7.456;2023-05-16T11:01:15;19.69;38.13
22917;DHT22;11624;53.250;7.456;2023-05-16T11:04:04;18.63;40.11
22917;DHT22;11624;53.250;7.456;2023-05-16T11:06:34;18.19;42.21
22917;DHT22;11624;53.250;7.456;2023-05-16T11:09:07;18.03;43.58
22917;DHT22;11624;53.250;7.456;2023-05-16T11:11:53;18.40;44.85
22917;DHT22;11624;53.250;7.456;2023-05-16T11:14:22;19.05;46.13
22917;DHT22;11624;53.250;7.456;2023-05-16T11:16:53;19.66;45.70
22917;DHT22;11624;53.250;7.456;2023-05-16T11:19:30;20.31;43.64
22917;DHT22;11624;53.250;7.456;2023-05-16T11:22:22;20.81;41.68
22917;DHT22;11624;53.250;7.456;2023-05-16T11:24:53;21.15;40.37
22917;DHT22;11624;53.250;7.456;2023-05-16T11:27:26;21.29;38.71
22917;DHT22;11624;53.250;7.456;2023-05-16T11:29:58;21.54;37.32
22917;DHT22;11624;53.250;7.456;2023-05-16T11:32:31;21.69;36.29
22917;DHT22;11624;53.250;7.456;2023-05-16T11:35:01;21.89;36.74
22917;DHT22;11624;53.250;7.456;2023-05-16T11:37:30;22.36;36.79
22917;DHT22;11624;53.250;7.456;2023-05-16T11:39:59;22.41;34.80
22917;DHT22;11624;53.250;7.456;2023-05-16T11:42:32;22.35;34.76
22917;DHT22;11624;53.250;7.456;2023-05-16T11:45:05;22.40;34.01
22917;DHT22;11624;53.250;7.456;2023-05-16T11:47:36;22.62;34.08
22917;DHT22;11624;53.250;7.456;2023-05-16T11:50:06;22.81;32.52
22917;DHT22;11624;53.250;7.456;2023-05-16T11:52:36;22.18;34.10
22917;DHT22;11624;53.250;7.456;2023-05-16T11:55:08;21.10;36.63
22917;DHT22;11624;53.250;7.456;2023-05-16T11:57:38;20.03;38.85
22917;DHT22;11624;53.250;7.456;2023-05-16T12:00:14;19.41;40.37
22917;DHT22;11624;53.250;7.456;2023-05-16T12:02:43;19.20;41.20
22917;DHT22;11624;53.250;7.456;2023-05-16T12:05:14;19.43;43.74
22917;DHT22;11624;53.250;7.456;2023-05-16T12:07:43;20.24;43.78
22917;DHT22;11624;53.250;7.456;2023-05-16T12:10:13;20.90;41.26
22917;DHT22;11624;53.250;7.456;2023-05-16T12:12:45;20.94;38.36
22917;DHT22;11624;53.250;7.456;2023-05-16T12:15:14;20.69;37.81
22917;DHT22;11624;53.250;7.456;2023-05-16T12:17:43;20.79;39.33
22917;DHT22;11624;53.250;7.456;2023-05-16T12:20:14;21.23;37.67
22917;DHT22;11624;53.250;7.456;2023-05-16T12:22:43;21.24;36.48
22917;DHT22;11624;53.250;7.456;2023-05-16T12:25:23;20.76;35.16
22917;DHT22;11624;53.250;7.456;2023-05-16T12:27:56;20.87;36.91
22917;DHT22;11624;53.250;7.456;2023-05-16T12:30:26;21.59;36.82
22917;DHT22;11624;53.250;7.456;2023-05-16T12:32:55;21.92;33.71
22917;DHT22;11624;53.250;7.456;2023-05-16T12:35:24;21.60;33.08
22917;DHT22;11624;53.250;7.456;2023-05-16T12:37:53;21.53;34.98
22917;DHT22;11624;53.250;7.456;2023-05-16T12:40:22;21.92;34.44
22917;DHT22;11624;53.250;7.456;2023-05-16T12:42:52;22.32;34.08
22917;DHT22;11624;53.250;7.456;2023-05-16T12:45:22;22.56;33.57
22917;DHT22;11624;53.250;7.456;2023-05-16T12:47:51;22.72;34.05
22917;DHT22;11624;53.250;7.456;2023-05-16T12:50:19;22.97;31.63
22917;DHT22;11624;53.250;7.456;2023-05-16T12:52:49;23.08;31.75
22917;DHT22;11624;53.250;7.456;2023-05-16T12:55:19;22.99;31.03
22917;DHT22;11624;53.250;7.456;2023-05-16T12:57:48;22.94;30.19
22917;DHT22;11624;53.250;7.456;2023-05-16T13:00:18;23.10;30.89
22917;DHT22;11624;53.250;7.456;2023-05-16T13:02:49;23.36;31.12
22917;DHT22;11624;53.250;7.456;2023-05-16T13:05:18;23.76;29.88
22917;DHT22;11624;53.250;7.456;2023-05-16T13:07:49;23.88;28.35
22917;DHT22;11624;53.250;7.456;2023-05-16T13:10:18;23.58;28.61
22917;DHT22;11624;53.250;7.456;2023-05-16T13:12:47;23.25;29.29
22917;DHT22;11624;53.250;7.456;2023-05-16T13:15:15;22.95;30.00
22917;DHT22;11624;53.250;7.456;2023-05-16T13:17:43;22.65;30.29
22917;DHT22;11624;53.250;7.456;2023-05-16T13:20:14;22.37;31.09
22917;DHT22;11624;53.250;7.456;2023-05-16T13:22:44;22.19;32.36
22917;DHT22;11624;53.250;7.456;2023-05-16T13:25:12;22.01;32.41
22917;DHT22;11624;53.250;7.456;2023-05-16T13:27:40;22.06;33.18
22917;DHT22;11624;53.250;7.456;2023-05-16T13:30:09;22.07;32.90
22917;DHT22;11624;53.250;7.456;2023-05-16T13:32:38;21.87;33.18
22917;DHT22;11624;53.250;7.456;2023-05-16T13:35:06;21.60;33.49
22917;DHT22;11624;53.250;7.456;2023-05-16T13:37:37;21.24;34.02
22917;DHT22;11624;53.250;7.456;2023-05-16T13:40:06;21.46;33.94
22917;DHT22;11624;53.250;7.456;2023-05-16T13:42:36;21.94;33.88
22917;DHT22;11624;53.250;7.456;2023-05-16T13:45:05;22.43;34.57
22917;DHT22;11624;53.250;7.456;2023-05-16T13:47:34;22.83;32.90
22917;DHT22;11624;53.250;7.456;2023-05-16T13:50:04;23.24;31.49
22917;DHT22;11624;53.250;7.456;2023-05-16T13:52:38;23.01;31.98
22917;DHT22;11624;53.250;7.456;2023-05-16T13:55:07;23.03;32.12
22917;DHT22;11624;53.250;7.456;2023-05-16T13:57:35;23.31;31.58
22917;DHT22;11624;53.250;7.456;2023-05-16T14:00:06;23.37;31.64
22917;DHT22;11624;53.250;7.456;2023-05-16T14:02:41;23.41;30.19
22917;DHT22;11624;53.250;7.456;2023-05-16T14:05:10;23.42;30.93
22917;DHT22;11624;53.250;7.456;2023-05-16T14:07:40;23.55;30.33
22917;DHT22;11624;53.250;7.456;2023-05-16T14:10:12;23.27;29.81
22917;DHT22;11624;53.250;7.456;2023-05-16T14:12:40;22.93;31.96
22917;DHT22;11624;53.250;7.456;2023-05-16T14:15:09;22.63;31.99
22917;DHT22;11624;53.250;7.456;2023-05-16T14:17:37;22.33;33.05
22917;DHT22;11624;53.250;7.456;2023-05-16T14:20:06;22.41;32.83
22917;DHT22;11624;53.250;7.456;2023-05-16T14:22:37;22.75;32.99
22917;DHT22;11624;53.250;7.456;2023-05-16T14:25:07;22.90;31.85
22917;DHT22;11624;53.250;7.456;2023-05-16T14:27:36;22.68;31.34
22917;DHT22;11624;53.250;7.456;2023-05-16T14:30:06;22.19;32.05
22917;DHT22;11624;53.250;7.456;2023-05-16T14:32:35;21.80;33.06
22917;DHT22;11624;53.250;7.456;2023-05-16T14:35:04;21.65;33.54
22917;DHT22;11624;53.250;7.456;2023-05-16T14:37:33;21.44;34.04
22917;DHT22;11624;53.250;7.456;2023-05-16T14:40:01;21.18;34.55
22917;DHT22;11624;53.250;7.456;2023-05-16T14:42:32;20.92;35.86
22917;DHT22;11624;53.250;7.456;2023-05-16T14:45:01;20.89;35.71
22917;DHT22;11624;53.250;7.456;2023-05-16T14:47:29;20.87;35.60
22917;DHT22;11624;53.250;7.456;2023-05-16T14:49:58;20.78;36.09
22917;DHT22;11624;53.250;7.456;2023-05-16T14:52:27;20.71;36.66
22917;DHT22;11624;53.250;7.456;2023-05-16T14:54:55;20.60;37.21
22917;DHT22;11624;53.250;7.456;2023-05-16T14:57:24;20.62;37.50
22917;DHT22;11624;53.250;7.456;2023-05-16T14:59:53;20.60;37.59
22917;DHT22;11624;53.250;7.456;2023-05-16T15:02:22;20.35;38.19
22917;DHT22;11624;53.250;7.456;2023-05-16T15:04:50;20.31;38.59
22917;DHT22;11624;53.250;7.456;2023-05-16T15:07:21;20.37;38.43
22917;DHT22;11624;53.250;7.456;2023-05-16T15:09:49;20.36;39.44
22917;DHT22;11624;53.250;7.456;2023-05-16T15:12:18;20.19;40.44
22917;DHT22;11624;53.250;7.456;2023-05-16T15:14:46;20.15;40.74
22917;DHT22;11624;53.250;7.456;2023-05-16T15:17:16;20.27;41.16
22917;DHT22;11624;53.250;7.456;2023-05-16T15:19:44;20.86;40.62
22917;DHT22;11624;53.250;7.456;2023-05-16T15:22:13;21.42;37.83
22917;DHT22;11624;53.250;7.456;2023-05-16T15:24:42;21.67;35.23
22917;DHT22;11624;53.250;7.456;2023-05-16T15:27:10;21.99;34.28
22917;DHT22;11624;53.250;7.456;2023-05-16T15:29:38;22.19;33.73
22917;DHT22;11624;53.250;7.456;2023-05-16T15:32:07;22.35;33.71
22917;DHT22;11624;53.250;7.456;2023-05-16T15:34:38;22.55;31.88
22917;DHT22;11624;53.250;7.456;2023-05-16T15:37:07;22.25;31.54
22917;DHT22;11624;53.250;7.456;2023-05-16T15:39:35;21.76;31.94
22917;DHT22;11624;53.250;7.456;2023-05-16T15:42:04;21.40;33.03
22917;DHT22;11624;53.250;7.456;2023-05-16T15:44:37;21.25;33.16
22917;DHT22;11624;53.250;7.456;2023-05-16T15:47:06;21.06;33.13